Time;durP1;ratioP1;P1;durP2;ratioP2;P2;SDS_P1;SDS_P2;PMS_P1;PMS_P2;Temp;Humidity;BMP_temperature;BMP_pressure;BME280_temperature;BME280_humidity;BME280_pressure;Samples;Min_cycle;Max_cycle;Signal;HPM_P1;HPM_P2
2022/01/04 05:47:08;;;;;;;;;;;11.90;99.90;12.40;98679.00;;;;294825;22;3182172;-92
2022/01/04 05:47:20;;;;;;;;;;;11.90;99.90;12.40;98688.00;;;;426659;22;89972;-92
2022/01/04 05:47:35;;;;;;;;;;;12.00;99.90;12.30;98695.00;;;;424763;22;83346;-92
2022/01/04 05:47:47;;;;;;;;;;;12.00;99.90;12.30;98691.00;;;;424167;22;92779;-95
2022/01/04 05:47:59;;;;;;;;;;;11.90;99.90;12.40;98691.00;;;;424805;22;82523;-93
2022/01/04 05:48:13;;;;;;;;;;;11.90;99.90;12.40;98690.00;;;;424113;22;92083;-91
2022/01/04 05:48:28;;;;;;;;;;;11.90;99.90;12.40;98690.00;;;;424854;22;83442;-93
2022/01/04 05:48:42;;;;;;;;;;;12.00;99.90;12.30;98692.00;;;;428416;22;90992;-94
2022/01/04 05:48:54;;;;;;;;;;;12.00;99.90;12.40;98696.00;;;;422732;23;83401;-91
2022/01/04 05:49:06;;;;;;;;;;;12.00;99.90;12.40;98691.00;;;;424281;22;91808;-94
2022/01/04 05:49:18;;;;;;;;;;;11.90;99.90;12.30;98686.00;;;;427201;22;83397;-93
2022/01/04 05:49:30;;;;;;;;;;;12.00;99.90;12.30;98697.00;;;;426658;22;90638;-92
2022/01/04 05:49:51;;;;;;;;;;;12.00;99.90;12.30;98682.00;;;;424664;22;83457;-93
2022/01/04 05:50:07;;;;;;;;;;;12.00;99.90;12.40;98689.00;;;;424185;22;92057;-93
2022/01/04 05:50:19;;;;;;;;;;;12.00;99.90;12.30;98689.00;;;;422741;23;83426;-93
2022/01/04 05:50:31;;;;;;;;;;;12.00;99.90;12.30;98692.00;;;;428764;22;90749;-94
2022/01/04 05:50:47;;;;;;;;;;;11.90;99.90;12.30;98689.00;;;;426912;22;83300;-92
2022/01/04 05:50:59;;;;;;;;;;;11.90;99.90;12.30;98697.00;;;;422594;23;91644;-93
2022/01/04 05:51:16;;;;;;;;;;;12.00;99.90;12.30;98687.00;;;;424412;22;83476;-92
2022/01/04 05:51:30;;;;;;;;;;;12.00;99.90;12.30;98696.00;;;;422618;23;90611;-93
2022/01/04 05:51:43;;;;;;;;;;;11.90;99.90;12.40;98684.00;;;;424523;22;83379;-93
2022/01/04 05:51:56;;;;;;;;;;;11.90;99.90;12.30;98688.00;;;;424239;22;92223;-93
2022/01/04 05:52:08;;;;;;;;;;;12.00;99.90;12.40;98688.00;;;;426828;22;83140;-93
2022/01/04 05:52:23;;;;;;;;;;;11.90;99.90;12.30;98691.00;;;;426304;22;92551;-93
2022/01/04 05:52:39;;;;;;;;;;;11.90;99.90;12.40;98687.00;;;;424720;22;83441;-93
2022/01/04 05:52:51;;;;;;;;;;;11.90;99.90;12.40;98694.00;;;;424242;22;91097;-93
2022/01/04 05:53:03;;;;;;;;;;;11.90;99.90;12.30;98693.00;;;;427243;22;83368;-92
2022/01/04 05:53:15;;;;;;;;;;;11.90;99.90;12.30;98687.00;;;;428766;22;89831;-93
2022/01/04 05:53:28;;;;;;;;;;;11.90;99.90;12.30;98682.00;;;;422728;23;82512;-91
2022/01/04 05:53:40;;;;;;;;;;;11.90;99.90;12.30;98682.00;;;;422693;23;90579;-93
2022/01/04 05:53:53;;;;;;;;;;;11.90;99.90;12.40;98685.00;;;;422832;23;82507;-93
2022/01/04 05:54:05;;;;;;;;;;;11.90;99.90;12.40;98691.00;;;;422578;23;89976;-93
2022/01/04 05:54:17;;;;;;;;;;;12.00;99.90;12.30;98686.00;;;;425215;22;83338;-93
2022/01/04 05:54:29;;;;;;;;;;;11.90;99.90;12.30;98673.00;;;;428854;22;92159;-93
2022/01/04 05:54:43;;;;;;;;;;;11.90;99.90;12.40;98684.00;;;;422543;23;83484;-93
2022/01/04 05:54:55;;;;;;;;;;;11.90;99.90;12.30;98695.00;;;;424638;22;90303;-92
2022/01/04 05:55:10;;;;;;;;;;;11.90;99.90;12.40;98682.00;;;;426963;22;82555;-93
2022/01/04 05:55:22;;;;;;;;;;;11.90;99.90;12.40;98690.00;;;;422650;23;91675;-93
2022/01/04 05:55:34;;;;;;;;;;;11.90;99.90;12.40;98685.00;;;;424680;22;83446;-93
2022/01/04 05:55:47;;;;;;;;;;;11.90;99.90;12.40;98689.00;;;;422140;23;92254;-93
2022/01/04 05:55:59;;;;;;;;;;;11.90;99.90;12.40;98680.00;;;;424669;22;83426;-93
2022/01/04 05:56:11;;;;;;;;;;;11.90;99.90;12.40;98685.00;;;;424091;22;91228;-92
2022/01/04 05:56:25;;;;;;;;;;;11.90;99.90;12.30;98686.00;;;;423130;23;82402;-93
2022/01/04 05:56:40;;;;;;;;;;;11.90;99.90;12.30;98689.00;;;;422407;23;91093;-93
2022/01/04 05:56:51;;;;;;;;;;;11.90;99.90;12.30;98687.00;;;;420610;23;83476;-93
2022/01/04 05:57:04;;;;;;;;;;;11.90;99.90;12.40;98683.00;;;;422221;23;89583;-93
2022/01/04 05:57:16;;;;;;;;;;;11.90;99.90;12.40;98685.00;;;;423117;23;83409;-93
2022/01/04 05:57:28;;;;;;;;;;;11.90;99.90;12.40;98694.00;;;;422176;23;91357;-94
2022/01/04 05:57:40;;;;;;;;;;;11.90;99.90;12.40;98682.00;;;;424626;22;83433;-93
2022/01/04 05:57:52;;;;;;;;;;;11.90;99.90;12.40;98686.00;;;;426297;22;89870;-93
2022/01/04 05:58:04;;;;;;;;;;;12.00;99.90;12.30;98687.00;;;;422709;23;83354;-93
2022/01/04 05:58:16;;;;;;;;;;;11.90;99.90;12.30;98683.00;;;;424022;22;91743;-93
2022/01/04 05:58:29;;;;;;;;;;;11.90;99.90;12.30;98695.00;;;;422709;23;83179;-93
2022/01/04 05:58:41;;;;;;;;;;;11.90;99.90;12.30;98683.00;;;;422398;23;91856;-93
2022/01/04 05:58:53;;;;;;;;;;;11.90;99.90;12.30;98706.00;;;;424960;22;83342;-93
2022/01/04 05:59:05;;;;;;;;;;;11.90;99.90;12.30;98687.00;;;;426652;22;89809;-93
2022/01/04 05:59:18;;;;;;;;;;;11.90;99.90;12.30;98698.00;;;;424445;22;83515;-92
2022/01/04 05:59:30;;;;;;;;;;;11.90;99.90;12.30;98690.00;;;;422577;23;89945;-93
2022/01/04 05:59:42;;;;;;;;;;;11.90;99.90;12.30;98688.00;;;;420708;23;83507;-93
2022/01/04 05:59:57;;;;;;;;;;;11.90;99.90;12.30;98691.00;;;;420230;23;90354;-93
2022/01/04 06:00:09;;;;;;;;;;;11.90;99.90;12.30;98696.00;;;;422667;23;83271;-94
2022/01/04 06:00:21;;;;;;;;;;;11.90;99.90;12.30;98694.00;;;;422461;23;90630;-93
2022/01/04 06:00:33;;;;;;;;;;;11.90;99.90;12.30;98692.00;;;;423219;23;83353;-93
2022/01/04 06:00:45;;;;;;;;;;;11.90;99.90;12.30;98693.00;;;;424123;22;91535;-94
2022/01/04 06:00:58;;;;;;;;;;;11.90;99.90;12.30;98692.00;;;;424738;22;83284;-93
2022/01/04 06:01:10;;;;;;;;;;;11.90;99.90;12.30;98697.00;;;;426367;22;90823;-93
2022/01/04 06:01:23;;;;;;;;;;;11.90;99.90;12.30;98702.00;;;;420743;23;83405;-93
2022/01/04 06:01:38;;;;;;;;;;;11.90;99.90;12.30;98689.00;;;;424129;22;90916;-93
2022/01/04 06:01:52;;;;;;;;;;;11.90;99.90;12.20;98690.00;;;;427322;22;82481;-92
2022/01/04 06:02:06;;;;;;;;;;;11.90;99.90;12.20;98691.00;;;;424209;22;90657;-93
2022/01/04 06:02:19;;;;;;;;;;;11.90;99.90;12.20;98687.00;;;;420633;23;83487;-93
2022/01/04 06:02:31;;;;;;;;;;;11.90;99.90;12.20;98696.00;;;;422254;23;91682;-94
2022/01/04 06:02:43;;;;;;;;;;;11.90;99.90;12.30;98690.00;;;;426863;22;82530;-92
2022/01/04 06:03:01;;;;;;;;;;;11.90;99.90;12.30;98699.00;;;;424475;22;90630;-93
2022/01/04 06:03:15;;;;;;;;;;;11.90;99.90;12.30;98695.00;;;;425017;22;83500;-93
2022/01/04 06:03:28;;;;;;;;;;;11.90;99.90;12.30;98690.00;;;;419896;23;91222;-93
2022/01/04 06:03:40;;;;;;;;;;;11.90;99.90;12.30;98689.00;;;;425100;22;83255;-92
2022/01/04 06:03:52;;;;;;;;;;;11.90;99.90;12.30;98691.00;;;;424423;22;90240;-92
2022/01/04 06:04:07;;;;;;;;;;;11.90;99.90;12.30;98698.00;;;;427044;22;83341;-92
2022/01/04 06:04:20;;;;;;;;;;;11.90;99.90;12.20;98688.00;;;;426418;22;91987;-93
2022/01/04 06:04:32;;;;;;;;;;;11.90;99.90;12.20;98688.00;;;;426810;22;83380;-93
2022/01/04 06:04:44;;;;;;;;;;;11.90;99.90;12.30;98690.00;;;;421938;23;91908;-93
2022/01/04 06:04:58;;;;;;;;;;;11.90;99.90;12.30;98697.00;;;;424062;22;82597;-93
2022/01/04 06:05:10;;;;;;;;;;;11.90;99.90;12.20;98689.00;;;;424271;22;93408;-93
2022/01/04 06:05:22;;;;;;;;;;;11.90;99.90;12.20;98683.00;;;;425093;22;82443;-92
2022/01/04 06:05:34;;;;;;;;;;;11.90;99.90;12.30;98693.00;;;;428872;22;89867;-95
2022/01/04 06:05:46;;;;;;;;;;;11.90;99.90;12.20;98691.00;;;;427067;22;82512;-93
2022/01/04 06:05:59;;;;;;;;;;;11.90;99.90;12.20;98687.00;;;;424751;22;91049;-92
2022/01/04 06:06:14;;;;;;;;;;;11.90;99.90;12.20;98687.00;;;;426812;22;83283;-93
2022/01/04 06:06:26;;;;;;;;;;;11.90;99.90;12.20;98685.00;;;;426709;22;89828;-93
2022/01/04 06:06:40;;;;;;;;;;;11.80;99.90;12.20;98680.00;;;;425130;22;83423;-93
2022/01/04 06:06:54;;;;;;;;;;;11.90;99.90;12.20;98679.00;;;;424288;22;90673;-94
2022/01/04 06:07:11;;;;;;;;;;;11.80;99.90;12.10;98685.00;;;;426927;22;83381;-93
2022/01/04 06:07:23;;;;;;;;;;;11.80;99.90;12.10;98684.00;;;;422008;23;91852;-93
2022/01/04 06:07:35;;;;;;;;;;;11.80;99.90;12.20;98686.00;;;;426656;22;83155;-92
2022/01/04 06:07:48;;;;;;;;;;;11.80;99.90;12.20;98679.00;;;;426621;22;90722;-93
2022/01/04 06:08:00;;;;;;;;;;;11.80;99.90;12.20;98688.00;;;;426862;22;83387;-93
2022/01/04 06:08:13;;;;;;;;;;;11.80;99.90;12.20;98681.00;;;;426007;22;89897;-93
2022/01/04 06:08:31;;;;;;;;;;;11.80;99.90;12.20;98676.00;;;;422650;23;83449;-93
2022/01/04 06:08:44;;;;;;;;;;;11.80;99.90;12.20;98685.00;;;;424410;22;91979;-93
2022/01/04 06:08:56;;;;;;;;;;;11.80;99.90;12.20;98686.00;;;;425138;22;83283;-93
2022/01/04 06:09:17;;;;;;;;;;;11.80;99.90;12.10;98678.00;;;;422430;23;89024;-93
2022/01/04 06:09:39;;;;;;;;;;;11.80;99.90;12.10;98679.00;;;;424765;22;83223;-93
2022/01/04 06:09:53;;;;;;;;;;;11.80;99.90;12.30;98680.00;;;;422062;23;92728;-93
2022/01/04 06:10:08;;;;;;;;;;;11.80;99.90;12.20;98683.00;;;;424784;22;83345;-93
2022/01/04 06:10:20;;;;;;;;;;;11.80;99.90;12.20;98680.00;;;;426705;22;90683;-93
2022/01/04 06:10:38;;;;;;;;;;;11.80;99.90;12.20;98683.00;;;;426934;22;83366;-93
2022/01/04 06:10:52;;;;;;;;;;;11.80;99.90;12.20;98689.00;;;;426202;22;90583;-93
2022/01/04 06:11:04;;;;;;;;;;;11.80;99.90;12.20;98680.00;;;;429015;22;83409;-92
2022/01/04 06:12:02;;;;;;;;;;;11.80;99.90;12.20;98678.00;;;;422680;23;90538;-92
2022/01/04 06:15:08;;;;;;;;;;;11.80;99.90;12.10;98686.00;;;;420225;23;90895;-93
2022/01/04 06:15:23;;;;;;;;;;;11.70;99.90;12.10;98680.00;;;;422783;23;83384;-93
2022/01/04 06:15:38;;;;;;;;;;;11.80;99.90;12.10;98679.00;;;;426212;22;90984;-92
2022/01/04 06:15:50;;;;;;;;;;;11.70;99.90;12.10;98681.00;;;;425245;22;82517;-92
2022/01/04 06:16:02;;;;;;;;;;;11.70;99.90;12.20;98683.00;;;;422206;23;92027;-93
2022/01/04 06:16:14;;;;;;;;;;;11.70;99.90;12.10;98681.00;;;;421690;23;83435;-94
2022/01/04 06:16:26;;;;;;;;;;;11.70;99.90;12.10;98680.00;;;;426178;22;92627;-93
2022/01/04 06:16:41;;;;;;;;;;;11.70;99.90;12.10;98677.00;;;;422761;23;83406;-93
2022/01/04 06:16:54;;;;;;;;;;;11.70;99.90;12.10;98685.00;;;;424342;22;91126;-93
2022/01/04 06:17:10;;;;;;;;;;;11.70;99.90;12.20;98680.00;;;;424828;22;83378;-93
2022/01/04 06:17:27;;;;;;;;;;;11.70;99.90;12.10;98671.00;;;;422607;23;90146;-93
2022/01/04 06:17:43;;;;;;;;;;;11.70;99.90;12.20;98684.00;;;;425312;22;83384;-93
2022/01/04 06:17:55;;;;;;;;;;;11.70;99.90;12.20;98672.00;;;;422097;23;90629;-93
2022/01/04 06:18:12;;;;;;;;;;;11.70;99.90;12.20;98690.00;;;;423029;23;83315;-93
2022/01/04 06:18:28;;;;;;;;;;;11.70;99.90;12.10;98682.00;;;;424285;22;92328;-93
2022/01/04 06:18:44;;;;;;;;;;;11.70;99.90;12.10;98688.00;;;;424801;22;82574;-93
2022/01/04 06:18:56;;;;;;;;;;;11.70;99.90;12.10;98682.00;;;;422149;23;89715;-93
2022/01/04 06:19:11;;;;;;;;;;;11.70;99.90;12.10;98681.00;;;;423095;23;83449;-92
2022/01/04 06:19:24;;;;;;;;;;;11.70;99.90;12.10;98679.00;;;;422238;23;91820;-93
2022/01/04 06:19:39;;;;;;;;;;;11.70;99.90;12.10;98677.00;;;;426965;22;83436;-93
2022/01/04 06:19:59;;;;;;;;;;;11.70;99.90;12.10;98681.00;;;;424208;22;89485;-93
2022/01/04 06:20:13;;;;;;;;;;;11.70;99.90;12.10;98678.00;;;;424845;22;82521;-93
2022/01/04 06:20:26;;;;;;;;;;;11.70;99.90;12.10;98684.00;;;;420572;23;89905;-93
2022/01/04 06:20:38;;;;;;;;;;;11.70;99.90;12.10;98691.00;;;;422579;23;82602;-92
2022/01/04 06:20:50;;;;;;;;;;;11.70;99.90;12.10;98686.00;;;;424107;22;93012;-94
2022/01/04 06:21:02;;;;;;;;;;;11.70;99.90;12.00;98686.00;;;;425090;22;83460;-92
2022/01/04 06:21:14;;;;;;;;;;;11.70;99.90;12.10;98684.00;;;;422222;23;91542;-94
2022/01/04 06:21:26;;;;;;;;;;;11.70;99.90;12.10;98688.00;;;;422832;23;82583;-93
2022/01/04 06:21:38;;;;;;;;;;;11.70;99.90;12.10;98679.00;;;;424508;22;90676;-93
2022/01/04 06:21:50;;;;;;;;;;;11.70;99.90;12.10;98687.00;;;;426834;22;83459;-93
2022/01/04 06:22:05;;;;;;;;;;;11.60;99.90;12.10;98685.00;;;;420526;23;89994;-93
2022/01/04 06:22:21;;;;;;;;;;;11.60;99.90;12.10;98683.00;;;;423044;22;83387;-93
2022/01/04 06:22:41;;;;;;;;;;;11.70;99.90;12.10;98691.00;;;;423261;22;90661;-92
2022/01/04 06:22:54;;;;;;;;;;;11.70;99.90;12.10;98685.00;;;;426722;22;82396;-93
2022/01/04 06:23:08;;;;;;;;;;;11.70;99.90;12.10;98679.00;;;;424238;22;91832;-93
2022/01/04 06:23:20;;;;;;;;;;;11.70;99.90;12.10;98686.00;;;;426843;22;82456;-93
2022/01/04 06:23:35;;;;;;;;;;;11.70;99.90;12.10;98686.00;;;;425928;22;91252;-93
2022/01/04 06:23:47;;;;;;;;;;;11.70;99.90;12.10;98683.00;;;;429435;22;83415;-92
2022/01/04 06:23:59;;;;;;;;;;;11.70;99.90;12.10;98684.00;;;;428499;22;90470;-93
2022/01/04 06:24:11;;;;;;;;;;;11.70;99.90;12.10;98680.00;;;;422546;23;82504;-93
2022/01/04 06:24:27;;;;;;;;;;;11.70;99.90;12.10;98685.00;;;;422495;23;90046;-92
2022/01/04 06:24:44;;;;;;;;;;;11.60;99.90;12.10;98690.00;;;;422831;23;83470;-93
2022/01/04 06:24:56;;;;;;;;;;;11.70;99.90;12.10;98693.00;;;;422094;23;90962;-94
2022/01/04 06:25:15;;;;;;;;;;;11.70;99.90;12.10;98680.00;;;;420644;23;83419;-94
2022/01/04 06:25:27;;;;;;;;;;;11.70;99.90;12.20;98686.00;;;;422118;23;92129;-93
2022/01/04 06:25:42;;;;;;;;;;;11.70;99.90;12.20;98680.00;;;;424953;22;82510;-94
2022/01/04 06:26:02;;;;;;;;;;;11.70;99.90;12.10;98673.00;;;;422728;23;89998;-93
2022/01/04 06:26:21;;;;;;;;;;;11.70;99.90;12.10;98688.00;;;;426925;22;82577;-93
2022/01/04 06:26:33;;;;;;;;;;;11.70;99.90;12.10;98683.00;;;;424308;22;90497;-93
2022/01/04 06:26:46;;;;;;;;;;;11.70;99.90;12.10;98686.00;;;;426950;22;83457;-93
2022/01/04 06:26:58;;;;;;;;;;;11.70;99.90;12.10;98683.00;;;;424601;22;90409;-93
2022/01/04 06:27:10;;;;;;;;;;;11.70;99.90;12.10;98677.00;;;;420553;23;83461;-93
2022/01/04 06:27:26;;;;;;;;;;;11.70;99.90;12.10;98679.00;;;;420563;23;90274;-93
2022/01/04 06:27:43;;;;;;;;;;;11.70;99.90;12.10;98679.00;;;;420951;23;83426;-93
2022/01/04 06:27:56;;;;;;;;;;;11.70;99.90;12.10;98673.00;;;;420308;23;90825;-92
2022/01/04 06:28:11;;;;;;;;;;;11.70;99.90;12.10;98685.00;;;;424647;22;83466;-93
2022/01/04 06:28:28;;;;;;;;;;;11.70;99.90;12.20;98680.00;;;;424310;22;90718;-93
2022/01/04 06:28:43;;;;;;;;;;;11.70;99.90;12.20;98682.00;;;;422628;23;82568;-93
2022/01/04 06:28:55;;;;;;;;;;;11.70;99.90;12.20;98683.00;;;;425565;22;89619;-93
2022/01/04 06:29:11;;;;;;;;;;;11.70;99.90;12.10;98680.00;;;;424756;22;83364;-94
2022/01/04 06:29:26;;;;;;;;;;;11.70;99.90;12.20;98680.00;;;;422361;23;90162;-93
2022/01/04 06:29:39;;;;;;;;;;;11.70;99.90;12.20;98688.00;;;;426778;22;83382;-93
2022/01/04 06:29:51;;;;;;;;;;;11.70;99.90;12.20;98679.00;;;;424209;22;91523;-93
2022/01/04 06:30:05;;;;;;;;;;;11.70;99.90;12.20;98677.00;;;;426854;22;83754;-93
2022/01/04 06:30:18;;;;;;;;;;;11.70;99.90;12.20;98682.00;;;;426202;22;90717;-93
2022/01/04 06:30:34;;;;;;;;;;;11.70;99.90;12.20;98674.00;;;;423115;23;83313;-93
2022/01/04 06:30:50;;;;;;;;;;;11.70;99.90;12.10;98683.00;;;;424597;22;90807;-93
2022/01/04 06:31:02;;;;;;;;;;;11.70;99.90;12.20;98677.00;;;;424780;22;83413;-94
2022/01/04 06:31:17;;;;;;;;;;;11.70;99.90;12.10;98679.00;;;;424248;22;91275;-93
2022/01/04 06:31:34;;;;;;;;;;;11.70;99.90;12.10;98675.00;;;;424841;22;83321;-93
2022/01/04 06:31:48;;;;;;;;;;;11.70;99.90;12.10;98682.00;;;;423905;22;89877;-93
2022/01/04 06:32:12;;;;;;;;;;;11.70;99.90;12.10;98686.00;;;;429229;22;83358;-93
2022/01/04 06:32:25;;;;;;;;;;;11.70;99.90;12.00;98676.00;;;;424195;22;91777;-94
2022/01/04 06:32:37;;;;;;;;;;;11.70;99.90;12.00;98679.00;;;;424768;22;83462;-93
2022/01/04 06:32:51;;;;;;;;;;;11.70;99.90;12.10;98674.00;;;;426204;22;91908;-93
2022/01/04 06:33:06;;;;;;;;;;;11.70;99.90;12.10;98679.00;;;;423085;23;82506;-93
2022/01/04 06:33:22;;;;;;;;;;;11.70;99.90;12.10;98675.00;;;;422102;23;91085;-94
2022/01/04 06:33:34;;;;;;;;;;;11.70;99.90;12.20;98677.00;;;;425133;22;82423;-92
2022/01/04 06:33:48;;;;;;;;;;;11.70;99.90;12.20;98681.00;;;;424589;22;91809;-93
2022/01/04 06:34:02;;;;;;;;;;;11.70;99.90;12.10;98677.00;;;;422783;23;83376;-94
2022/01/04 06:34:16;;;;;;;;;;;11.70;99.90;12.10;98682.00;;;;424516;22;90008;-93
2022/01/04 06:34:31;;;;;;;;;;;11.70;99.90;12.10;98687.00;;;;427168;22;83143;-92
2022/01/04 06:34:43;;;;;;;;;;;11.70;99.90;12.00;98679.00;;;;426282;22;92094;-94
2022/01/04 06:35:03;;;;;;;;;;;11.70;99.90;12.10;98685.00;;;;422698;23;82476;-93
2022/01/04 06:35:17;;;;;;;;;;;11.70;99.90;12.10;98681.00;;;;422197;23;91667;-93
2022/01/04 06:35:33;;;;;;;;;;;11.70;99.90;12.20;98684.00;;;;424806;22;83397;-94
2022/01/04 06:35:49;;;;;;;;;;;11.70;99.90;12.20;98682.00;;;;424194;22;91812;-93
2022/01/04 06:36:01;;;;;;;;;;;11.70;99.90;12.20;98683.00;;;;423086;23;83423;-93
2022/01/04 06:36:21;;;;;;;;;;;11.70;99.90;12.10;98689.00;;;;424258;22;91125;-93
2022/01/04 06:36:41;;;;;;;;;;;11.70;99.90;12.10;98688.00;;;;425137;22;83343;-93
2022/01/04 06:36:59;;;;;;;;;;;11.70;99.90;12.10;98687.00;;;;424093;22;91167;-93
2022/01/04 06:37:16;;;;;;;;;;;11.70;99.90;12.10;98690.00;;;;422536;23;83926;-93
2022/01/04 06:37:28;;;;;;;;;;;11.70;99.90;12.10;98687.00;;;;424635;22;91336;-92
2022/01/04 06:37:47;;;;;;;;;;;11.70;99.90;12.10;98684.00;;;;422764;23;82653;-94
2022/01/04 06:38:02;;;;;;;;;;;11.70;99.90;12.00;98680.00;;;;426248;22;92117;-93
2022/01/04 06:38:14;;;;;;;;;;;11.70;99.90;12.10;98687.00;;;;427242;22;83369;-93
2022/01/04 06:38:30;;;;;;;;;;;11.70;99.90;12.00;98679.00;;;;428804;22;90880;-93
2022/01/04 06:38:42;;;;;;;;;;;11.70;99.90;12.00;98683.00;;;;424604;22;83340;-93
2022/01/04 06:38:55;;;;;;;;;;;11.70;99.90;12.00;98669.00;;;;426266;22;91690;-93
2022/01/04 06:39:07;;;;;;;;;;;11.70;99.90;12.10;98678.00;;;;428903;22;83395;-93
2022/01/04 06:39:22;;;;;;;;;;;11.70;99.90;12.00;98680.00;;;;426330;22;90638;-93
2022/01/04 06:39:37;;;;;;;;;;;11.70;99.90;12.10;98674.00;;;;427304;22;82278;-93
2022/01/04 06:39:54;;;;;;;;;;;11.60;99.90;12.10;98678.00;;;;424538;22;91205;-93
2022/01/04 06:40:09;;;;;;;;;;;11.70;99.90;12.10;98672.00;;;;427204;22;82526;-93
2022/01/04 06:40:24;;;;;;;;;;;11.70;99.90;12.10;98664.00;;;;424235;22;91628;-93
2022/01/04 06:40:36;;;;;;;;;;;11.60;99.90;12.10;98669.00;;;;420603;23;83387;-93
2022/01/04 06:40:48;;;;;;;;;;;11.70;99.90;12.00;98669.00;;;;421943;23;90860;-93
2022/01/04 06:41:01;;;;;;;;;;;11.70;99.90;12.00;98670.00;;;;422851;23;82455;-94
2022/01/04 06:41:14;;;;;;;;;;;11.70;99.90;12.00;98666.00;;;;420093;23;89944;-93
2022/01/04 06:41:27;;;;;;;;;;;11.60;99.90;12.00;98665.00;;;;424657;22;83471;-93
2022/01/04 06:41:44;;;;;;;;;;;11.60;99.90;12.00;98667.00;;;;426178;22;90938;-94
2022/01/04 06:41:58;;;;;;;;;;;11.60;99.90;12.00;98664.00;;;;422241;23;83414;-92
2022/01/04 06:42:14;;;;;;;;;;;11.60;99.90;12.00;98672.00;;;;422423;22;90615;-94
2022/01/04 06:42:27;;;;;;;;;;;11.60;99.90;12.00;98667.00;;;;425049;22;83450;-93
2022/01/04 06:42:39;;;;;;;;;;;11.60;99.90;12.00;98669.00;;;;424216;22;91889;-93
2022/01/04 06:42:55;;;;;;;;;;;11.60;99.90;12.00;98672.00;;;;424631;22;83499;-94
2022/01/04 06:43:14;;;;;;;;;;;11.60;99.90;11.90;98675.00;;;;421659;23;90354;-93
2022/01/04 06:43:28;;;;;;;;;;;11.60;99.90;11.90;98675.00;;;;420480;23;82616;-93
2022/01/04 06:43:42;;;;;;;;;;;11.60;99.90;11.90;98671.00;;;;426215;22;90553;-94
2022/01/04 06:44:04;;;;;;;;;;;11.60;99.90;12.00;98673.00;;;;424982;22;83447;-93
2022/01/04 06:44:19;;;;;;;;;;;11.60;99.90;11.90;98673.00;;;;426291;22;91277;-94
2022/01/04 06:44:31;;;;;;;;;;;11.60;99.90;11.90;98673.00;;;;425235;22;82602;-93
2022/01/04 06:45:01;;;;;;;;;;;;;;;;;;;;;
2022/01/04 06:45:32;;;;;;;;;;;11.60;99.90;12.00;98662.00;;;;425304;22;82596;-93
2022/01/04 06:45:46;;;;;;;;;;;11.60;99.90;12.00;98667.00;;;;421922;23;92431;-93
2022/01/04 06:45:59;;;;;;;;;;;11.60;99.90;12.00;98662.00;;;;422680;23;83430;-93
2022/01/04 06:46:20;;;;;;;;;;;11.60;99.90;12.10;98670.00;;;;424151;22;90872;-94
2022/01/04 06:46:34;;;;;;;;;;;11.60;99.90;12.10;98672.00;;;;425224;22;82487;-93
2022/01/04 06:46:51;;;;;;;;;;;11.60;99.90;12.10;98671.00;;;;424586;22;89813;-93
2022/01/04 06:47:06;;;;;;;;;;;11.60;99.90;12.00;98656.00;;;;422284;23;83470;-94
2022/01/04 06:47:22;;;;;;;;;;;11.60;99.90;12.00;98660.00;;;;422117;23;91217;-93
2022/01/04 06:47:36;;;;;;;;;;;11.60;99.90;12.00;98652.00;;;;425033;22;83417;-94
2022/01/04 06:47:52;;;;;;;;;;;11.60;99.90;11.90;98664.00;;;;424281;22;92318;-93
2022/01/04 06:48:18;;;;;;;;;;;11.60;99.90;12.00;98664.00;;;;424596;22;82668;-94
2022/01/04 06:48:35;;;;;;;;;;;11.60;99.90;12.00;98660.00;;;;426490;22;90791;-94
2022/01/04 06:48:55;;;;;;;;;;;11.60;99.90;12.00;98653.00;;;;426807;22;83416;-94
2022/01/04 06:49:10;;;;;;;;;;;11.60;99.90;12.00;98665.00;;;;424181;22;90946;-93
2022/01/04 06:49:29;;;;;;;;;;;11.60;99.90;11.90;98656.00;;;;422431;23;82490;-92
2022/01/04 06:49:53;;;;;;;;;;;11.60;99.90;12.00;98671.00;;;;424238;22;91006;-93
2022/01/04 06:50:15;;;;;;;;;;;11.60;99.90;11.90;98658.00;;;;426518;22;82666;-93
2022/01/04 06:50:29;;;;;;;;;;;11.50;99.90;11.90;98658.00;;;;424256;22;90924;-93
2022/01/04 06:50:44;;;;;;;;;;;11.60;99.90;11.90;98660.00;;;;425206;22;82499;-93
2022/01/04 06:50:57;;;;;;;;;;;11.60;99.90;11.90;98654.00;;;;424086;22;90208;-93
2022/01/04 06:51:09;;;;;;;;;;;11.60;99.90;12.00;98650.00;;;;424747;22;83155;-93
2022/01/04 06:51:21;;;;;;;;;;;11.60;99.90;12.00;98659.00;;;;424637;22;92767;-93
2022/01/04 06:51:40;;;;;;;;;;;11.60;99.90;11.90;98661.00;;;;424735;22;83303;-95
2022/01/04 06:51:55;;;;;;;;;;;11.60;99.90;11.90;98651.00;;;;422134;23;92109;-94
2022/01/04 06:52:12;;;;;;;;;;;11.60;99.90;11.90;98647.00;;;;425084;22;83246;-93
2022/01/04 06:52:27;;;;;;;;;;;11.50;99.90;11.90;98648.00;;;;426346;22;90056;-93
2022/01/04 06:52:43;;;;;;;;;;;11.50;99.90;11.90;98647.00;;;;425182;22;83344;-94
2022/01/04 06:52:59;;;;;;;;;;;11.50;99.90;11.90;98654.00;;;;426222;22;91197;-93
2022/01/04 06:53:13;;;;;;;;;;;11.50;99.90;11.90;98644.00;;;;426901;22;83340;-93
2022/01/04 06:53:32;;;;;;;;;;;11.50;99.90;11.90;98644.00;;;;428328;22;91336;-93
2022/01/04 06:53:53;;;;;;;;;;;11.50;99.90;11.90;98650.00;;;;424723;22;83404;-93
2022/01/04 06:54:08;;;;;;;;;;;11.50;99.90;11.90;98648.00;;;;421705;23;92879;-94
2022/01/04 06:54:21;;;;;;;;;;;11.50;99.90;11.90;98651.00;;;;425129;22;83377;-95
2022/01/04 06:54:58;;;;;;;;;;;;;;;;;;;;;
2022/01/04 06:55:34;;;;;;;;;;;11.50;99.90;12.00;98659.00;;;;420604;23;82611;-93
2022/01/04 06:56:11;;;;;;;;;;;11.50;99.90;11.90;98653.00;;;;421888;23;90230;-94
2022/01/04 06:56:43;;;;;;;;;;;11.50;99.90;12.00;98648.00;;;;420649;23;83430;-94
2022/01/04 06:57:29;;;;;;;;;;;11.50;99.90;12.00;98645.00;;;;420264;23;89134;-93
2022/01/04 06:57:42;;;;;;;;;;;11.50;99.90;12.00;98643.00;;;;422613;23;83444;-92
2022/01/04 06:58:07;;;;;;;;;;;11.50;99.90;12.00;98642.00;;;;424218;22;92009;-92
2022/01/04 06:58:31;;;;;;;;;;;11.50;99.90;11.90;98645.00;;;;426786;22;82515;-93
2022/01/04 06:58:56;;;;;;;;;;;11.50;99.90;11.90;98633.00;;;;424572;22;90654;-93
2022/01/04 06:59:21;;;;;;;;;;;11.50;99.90;11.90;98644.00;;;;423032;23;83374;-93
2022/01/04 06:59:41;;;;;;;;;;;11.50;99.90;12.00;98646.00;;;;426311;22;90738;-93
2022/01/04 07:00:16;;;;;;;;;;;11.50;99.90;11.80;98647.00;;;;424753;22;82541;-93
2022/01/04 07:00:55;;;;;;;;;;;11.50;99.90;11.90;98635.00;;;;413937;23;86883;-93
2022/01/04 07:01:45;;;;;;;;;;;11.50;99.90;11.90;98640.00;;;;414473;23;83412;-93
2022/01/04 07:02:24;;;;;;;;;;;;;;;;;;;;;
2022/01/04 07:02:45;;;;;;;;;;;11.50;99.90;11.80;98643.00;;;;414557;23;82707;-92
2022/01/04 07:03:04;;;;;;;;;;;11.50;99.90;11.90;98639.00;;;;417345;23;91011;-93
2022/01/04 07:03:16;;;;;;;;;;;11.50;99.90;11.90;98631.00;;;;414445;23;83440;-93
2022/01/04 07:03:31;;;;;;;;;;;11.50;99.90;11.90;98639.00;;;;415939;23;93064;-93
2022/01/04 07:03:51;;;;;;;;;;;11.50;99.90;11.80;98639.00;;;;416518;23;82447;-93
2022/01/04 07:04:19;;;;;;;;;;;11.50;99.90;11.90;98629.00;;;;418132;23;90917;-94
2022/01/04 07:04:33;;;;;;;;;;;11.50;99.90;11.90;98635.00;;;;417050;23;82489;-92
2022/01/04 07:04:51;;;;;;;;;;;11.50;99.90;11.90;98633.00;;;;412416;23;90193;-93
2022/01/04 07:05:12;;;;;;;;;;;11.50;99.90;11.90;98635.00;;;;414549;23;83426;-93
2022/01/04 07:05:47;;;;;;;;;;;11.50;99.90;12.00;98632.00;;;;414197;23;91257;-93
2022/01/04 07:05:59;;;;;;;;;;;11.50;99.90;11.90;98637.00;;;;414556;23;82606;-93
2022/01/04 07:06:16;;;;;;;;;;;11.50;99.90;11.90;98634.00;;;;416283;23;90068;-92
2022/01/04 07:06:34;;;;;;;;;;;11.50;99.90;11.90;98640.00;;;;414789;23;82567;-92
2022/01/04 07:07:00;;;;;;;;;;;11.50;99.90;11.80;98625.00;;;;416612;23;90485;-93
2022/01/04 07:07:19;;;;;;;;;;;11.50;99.90;11.80;98632.00;;;;415262;23;82415;-92
2022/01/04 07:07:31;;;;;;;;;;;11.50;99.90;11.90;98644.00;;;;415155;23;90072;-92
2022/01/04 07:07:58;;;;;;;;;;;11.50;99.90;11.90;98643.00;;;;416860;23;82565;-93